createdAt,value
2019-01-24T00:02:15.452Z,18.82
2019-01-24T00:04:43.231Z,19.48
2019-01-24T00:07:13.275Z,16.30
2019-01-24T00:09:41.128Z,18.23
2019-01-24T00:12:12.199Z,15.83
2019-01-24T00:14:40.055Z,14.00
2019-01-24T00:17:07.888Z,16.20
2019-01-24T00:19:36.579Z,13.58
2019-01-24T00:22:04.484Z,20.27
2019-01-24T00:24:32.303Z,14.60
2019-01-24T00:27:00.219Z,15.90
2019-01-24T00:29:28.049Z,15.25
2019-01-24T00:31:55.839Z,15.93
2019-01-24T00:34:24.119Z,14.58
2019-01-24T00:36:51.996Z,14.00
2019-01-24T00:39:22.541Z,13.55
2019-01-24T00:41:50.251Z,12.82
2019-01-24T00:44:18.129Z,14.60
2019-01-24T00:46:45.987Z,16.42
2019-01-24T00:49:15.843Z,13.62
2019-01-24T00:51:44.754Z,16.80
2019-01-24T00:54:12.434Z,16.05
2019-01-24T00:56:40.318Z,13.88
2019-01-24T00:59:09.388Z,17.07
2019-01-24T01:01:38.229Z,16.37
2019-01-24T01:04:06.526Z,17.20
2019-01-24T01:06:34.333Z,13.93
2019-01-24T01:09:02.638Z,16.60
2019-01-24T01:11:30.369Z,15.50
2019-01-24T01:13:58.174Z,16.30
2019-01-24T01:16:26.099Z,10.93
2019-01-24T01:18:53.912Z,14.65
2019-01-24T01:21:22.701Z,10.60
2019-01-24T01:23:52.503Z,12.75
2019-01-24T01:26:20.376Z,11.48
2019-01-24T01:28:48.366Z,7.40
2019-01-24T01:31:17.052Z,9.45
2019-01-24T01:33:44.792Z,9.48
2019-01-24T01:36:13.462Z,7.22
2019-01-24T01:38:42.464Z,7.78
2019-01-24T01:41:11.363Z,10.70
2019-01-24T01:43:39.217Z,8.90
2019-01-24T01:46:07.097Z,7.22
2019-01-24T01:48:34.915Z,7.78
2019-01-24T01:51:02.828Z,6.05
2019-01-24T01:53:30.758Z,7.17
2019-01-24T01:55:58.931Z,6.97
2019-01-24T01:58:26.589Z,8.15
2019-01-24T02:00:54.409Z,5.62
2019-01-24T02:03:24.203Z,6.55
2019-01-24T02:05:52.043Z,5.00
2019-01-24T02:08:21.261Z,5.28
2019-01-24T02:10:48.948Z,5.75
2019-01-24T02:13:18.843Z,5.95
2019-01-24T02:15:46.889Z,6.25
2019-01-24T02:18:14.881Z,6.90
2019-01-24T02:20:43.671Z,5.42
2019-01-24T02:23:11.767Z,9.23
2019-01-24T02:25:42.351Z,6.55
2019-01-24T02:28:10.232Z,5.15
2019-01-24T02:30:38.087Z,5.60
2019-01-24T02:33:06.041Z,5.25
2019-01-24T02:35:33.771Z,4.78
2019-01-24T02:38:01.704Z,5.95
2019-01-24T02:40:30.719Z,6.22
2019-01-24T02:42:58.680Z,4.90
2019-01-24T02:45:26.944Z,5.95
2019-01-24T02:47:54.760Z,5.50
2019-01-24T02:50:24.727Z,4.40
2019-01-24T02:52:52.612Z,4.50
2019-01-24T02:55:20.573Z,3.92
2019-01-24T02:57:49.354Z,4.95
2019-01-24T03:00:20.828Z,4.60
2019-01-24T03:02:49.220Z,5.83
2019-01-24T03:05:19.230Z,4.85
2019-01-24T03:07:47.303Z,3.55
2019-01-24T03:10:15.736Z,5.95
2019-01-24T03:12:43.633Z,2.33
2019-01-24T03:15:13.399Z,1.85
2019-01-24T03:17:43.625Z,2.15
2019-01-24T03:20:11.620Z,2.22
2019-01-24T03:22:40.087Z,2.05
2019-01-24T03:25:08.690Z,2.37
2019-01-24T03:27:36.817Z,2.25
2019-01-24T03:30:07.875Z,2.02
2019-01-24T03:32:35.652Z,1.70
2019-01-24T03:35:06.006Z,1.98
2019-01-24T03:37:34.152Z,2.12
2019-01-24T03:40:02.143Z,1.80
2019-01-24T03:42:29.976Z,2.37
2019-01-24T03:44:58.995Z,2.00
2019-01-24T03:47:27.429Z,2.08
2019-01-24T03:49:55.543Z,2.60
2019-01-24T03:52:24.623Z,2.40
2019-01-24T03:54:52.326Z,2.00
2019-01-24T03:57:20.350Z,3.42
2019-01-24T03:59:48.405Z,1.80
2019-01-24T04:02:18.881Z,1.98
2019-01-24T04:04:47.519Z,1.80
2019-01-24T04:07:15.926Z,1.50
2019-01-24T04:09:43.859Z,2.17
2019-01-24T04:12:12.886Z,1.10
2019-01-24T04:14:40.562Z,1.98
2019-01-24T04:17:08.221Z,1.90
2019-01-24T04:19:36.143Z,1.72
2019-01-24T04:22:04.054Z,1.65
2019-01-24T04:24:31.992Z,1.50
2019-01-24T04:27:02.577Z,1.40
2019-01-24T04:29:30.499Z,1.70
2019-01-24T04:31:58.455Z,1.47
2019-01-24T04:34:26.145Z,1.60
2019-01-24T04:36:53.863Z,1.00
2019-01-24T04:39:22.047Z,1.05
2019-01-24T04:41:50.173Z,1.37
2019-01-24T04:44:21.877Z,2.35
2019-01-24T04:46:49.647Z,1.40
2019-01-24T04:49:18.381Z,1.90
2019-01-24T04:51:46.203Z,1.60
2019-01-24T04:54:14.451Z,1.82
2019-01-24T04:56:42.355Z,1.92
2019-01-24T04:59:11.389Z,1.92
2019-01-24T05:01:42.357Z,1.90
2019-01-24T05:04:10.426Z,2.00
2019-01-24T05:06:38.320Z,2.30
2019-01-24T05:09:14.346Z,3.30
2019-01-24T05:11:42.239Z,5.58
2019-01-24T05:14:11.271Z,2.42
2019-01-24T05:16:38.930Z,1.92
2019-01-24T05:19:06.599Z,2.70
2019-01-24T05:21:34.957Z,4.12
2019-01-24T05:24:02.747Z,3.05
2019-01-24T05:26:30.445Z,2.67
2019-01-24T05:28:58.452Z,4.60
2019-01-24T05:31:26.417Z,3.80
2019-01-24T05:33:54.183Z,3.83
2019-01-24T05:36:27.862Z,2.30
2019-01-24T05:38:55.661Z,4.30
2019-01-24T05:41:23.664Z,4.25
2019-01-24T05:43:51.391Z,4.42
2019-01-24T05:46:19.344Z,4.53
2019-01-24T05:48:47.033Z,3.40
2019-01-24T05:51:15.072Z,4.55
2019-01-24T05:53:44.484Z,4.35
2019-01-24T05:56:12.185Z,6.45
2019-01-24T05:58:39.908Z,5.90
2019-01-24T06:01:09.524Z,5.28
2019-01-24T06:03:37.690Z,4.92
2019-01-24T06:06:05.470Z,5.00
2019-01-24T06:08:33.375Z,5.83
2019-01-24T06:11:01.642Z,5.75
2019-01-24T06:13:29.742Z,6.12
2019-01-24T06:15:57.760Z,6.70
2019-01-24T06:18:26.629Z,6.12
2019-01-24T06:20:54.315Z,5.28
2019-01-24T06:23:23.062Z,5.75
2019-01-24T06:25:50.865Z,6.40
2019-01-24T06:28:18.796Z,5.20
2019-01-24T06:30:46.759Z,5.17
2019-01-24T06:33:14.533Z,11.80
2019-01-24T06:35:48.462Z,42.30
2019-01-24T06:38:11.995Z,21.07
2019-01-24T06:40:39.714Z,7.37
2019-01-24T06:43:07.425Z,9.10
2019-01-24T06:45:35.225Z,11.43
2019-01-24T06:48:04.758Z,8.13
2019-01-24T06:50:33.369Z,7.67
2019-01-24T06:53:01.121Z,8.65
2019-01-24T06:55:29.728Z,8.20
2019-01-24T06:57:57.708Z,6.97
2019-01-24T07:00:26.940Z,6.65
2019-01-24T07:02:55.007Z,6.55
2019-01-24T07:05:22.979Z,7.15
2019-01-24T07:07:50.739Z,7.37
2019-01-24T07:10:19.460Z,7.03
2019-01-24T07:12:47.412Z,7.50
2019-01-24T07:15:17.637Z,8.75
2019-01-24T07:17:45.604Z,8.40
2019-01-24T07:20:17.061Z,7.87
2019-01-24T07:22:45.092Z,6.70
2019-01-24T07:25:17.580Z,8.83
2019-01-24T07:27:46.138Z,11.53
2019-01-24T07:30:15.197Z,11.60
2019-01-24T07:32:43.001Z,10.58
2019-01-24T07:35:12.998Z,8.43
2019-01-24T07:37:40.717Z,9.58
2019-01-24T07:40:10.153Z,9.03
2019-01-24T07:42:38.200Z,7.85
2019-01-24T07:45:12.099Z,9.00
2019-01-24T07:47:41.199Z,8.68
2019-01-24T07:50:10.563Z,8.10
2019-01-24T07:52:38.638Z,12.13
2019-01-24T07:55:08.473Z,7.97
2019-01-24T07:57:36.277Z,7.85
2019-01-24T08:00:09.248Z,8.10
2019-01-24T08:02:39.657Z,8.80
2019-01-24T08:05:09.484Z,10.45
2019-01-24T08:07:37.378Z,7.58
2019-01-24T08:10:06.736Z,7.03
2019-01-24T08:12:34.692Z,6.75
2019-01-24T08:15:02.815Z,8.38
2019-01-24T08:17:30.844Z,6.75
2019-01-24T08:19:58.519Z,5.30
2019-01-24T08:22:28.507Z,6.42
2019-01-24T08:24:56.434Z,8.00
2019-01-24T08:27:24.403Z,8.10
2019-01-24T08:29:52.202Z,8.98
2019-01-24T08:32:19.981Z,7.37
2019-01-24T08:34:47.892Z,8.53
2019-01-24T08:37:16.655Z,9.30
2019-01-24T08:39:44.490Z,9.13
2019-01-24T08:42:12.265Z,11.25
2019-01-24T08:44:40.174Z,9.40
2019-01-24T08:47:07.898Z,6.80
2019-01-24T08:49:35.918Z,8.78
2019-01-24T08:52:03.997Z,9.58
2019-01-24T08:54:32.082Z,10.35
2019-01-24T08:56:59.754Z,10.82
2019-01-24T08:59:29.772Z,10.90
2019-01-24T09:01:58.062Z,13.28
2019-01-24T09:04:27.218Z,18.30
2019-01-24T09:06:55.079Z,17.25
2019-01-24T09:09:24.933Z,15.68
2019-01-24T09:11:52.878Z,15.10
2019-01-24T09:14:20.664Z,12.85
2019-01-24T09:16:48.330Z,15.68
2019-01-24T09:19:20.538Z,15.95
2019-01-24T09:21:48.858Z,16.90
2019-01-24T09:24:16.657Z,17.42
2019-01-24T09:26:44.662Z,17.12
2019-01-24T09:29:12.373Z,20.97
2019-01-24T09:31:43.200Z,23.50
2019-01-24T09:34:11.480Z,23.30
2019-01-24T09:36:40.538Z,22.75
2019-01-24T09:39:08.368Z,23.47
2019-01-24T09:41:36.082Z,18.98
2019-01-24T09:44:04.403Z,20.32
2019-01-24T09:46:32.346Z,18.55
2019-01-24T09:49:00.300Z,15.00
2019-01-24T09:51:29.325Z,19.07
2019-01-24T09:53:57.226Z,17.02
2019-01-24T09:56:26.265Z,14.98
2019-01-24T09:58:54.303Z,20.62
2019-01-24T10:01:24.161Z,15.10
2019-01-24T10:03:52.164Z,16.70
2019-01-24T10:06:21.035Z,20.05
2019-01-24T10:08:49.371Z,15.48
2019-01-24T10:11:23.574Z,12.55
2019-01-24T10:13:50.473Z,11.83
2019-01-24T10:16:18.767Z,14.65
2019-01-24T10:18:46.656Z,11.85
2019-01-24T10:21:15.625Z,14.73
2019-01-24T10:23:43.520Z,10.18
2019-01-24T10:26:11.859Z,11.55
2019-01-24T10:28:39.654Z,13.75
2019-01-24T10:31:07.467Z,13.00
2019-01-24T10:33:35.397Z,11.83
2019-01-24T10:36:03.508Z,12.10
2019-01-24T10:38:31.862Z,11.65
2019-01-24T10:40:59.768Z,17.85
2019-01-24T10:43:31.000Z,17.75
2019-01-24T10:45:58.754Z,19.25
2019-01-24T10:48:26.697Z,17.10
2019-01-24T10:50:54.453Z,17.80
2019-01-24T10:53:23.688Z,19.12
2019-01-24T10:55:52.685Z,21.80
2019-01-24T10:58:22.690Z,19.02
2019-01-24T11:00:50.626Z,18.50
2019-01-24T11:03:19.852Z,18.82
2019-01-24T11:05:47.842Z,20.72
2019-01-24T11:08:18.133Z,18.35
2019-01-24T11:10:46.193Z,17.25
2019-01-24T11:13:16.131Z,33.53
2019-01-24T11:15:44.317Z,20.48
2019-01-24T11:18:12.363Z,21.30
2019-01-24T11:20:41.158Z,21.95
2019-01-24T11:23:09.972Z,21.55
2019-01-24T11:25:37.822Z,22.87
2019-01-24T11:28:11.064Z,21.85
2019-01-24T11:30:38.874Z,22.52
2019-01-24T11:33:07.155Z,26.07
2019-01-24T11:35:36.740Z,21.70
2019-01-24T11:38:04.871Z,31.45
2019-01-24T11:40:33.484Z,27.98
2019-01-24T11:43:01.261Z,25.43
2019-01-24T11:45:34.622Z,33.38
2019-01-24T11:48:04.095Z,24.45
2019-01-24T11:50:32.017Z,21.10
2019-01-24T11:52:59.828Z,18.92
2019-01-24T11:55:27.779Z,16.97
2019-01-24T11:57:55.493Z,13.20
2019-01-24T12:00:31.396Z,13.28
2019-01-24T12:02:59.150Z,13.90
2019-01-24T12:05:27.103Z,13.18
2019-01-24T12:07:55.332Z,19.17
2019-01-24T12:10:24.915Z,14.58
2019-01-24T12:12:52.975Z,14.43
2019-01-24T12:15:22.453Z,17.23
2019-01-24T12:17:50.474Z,14.55
2019-01-24T12:20:21.714Z,24.25
2019-01-24T12:22:50.596Z,17.02
2019-01-24T12:25:19.795Z,17.98
2019-01-24T12:27:47.719Z,19.82
2019-01-24T12:30:22.806Z,16.55
2019-01-24T12:32:50.730Z,17.62
2019-01-24T12:35:18.995Z,18.52
2019-01-24T12:37:47.783Z,19.02
2019-01-24T12:40:19.417Z,16.55
2019-01-24T12:42:47.125Z,14.68
2019-01-24T12:45:18.520Z,14.73
2019-01-24T12:47:46.526Z,16.15
2019-01-24T12:50:16.361Z,15.28
2019-01-24T12:52:44.410Z,17.23
2019-01-24T12:55:13.767Z,16.05
2019-01-24T12:57:41.699Z,15.50
2019-01-24T13:00:16.612Z,17.05
2019-01-24T13:02:44.460Z,18.80
2019-01-24T13:05:13.309Z,17.73
2019-01-24T13:07:43.487Z,17.32
2019-01-24T13:10:13.896Z,13.72
2019-01-24T13:12:41.691Z,16.30
2019-01-24T13:15:10.164Z,15.60
2019-01-24T13:17:38.126Z,14.30
2019-01-24T13:20:09.996Z,14.93
2019-01-24T13:22:37.995Z,15.50
2019-01-24T13:25:09.885Z,16.70
2019-01-24T13:27:37.846Z,14.10
2019-01-24T13:30:09.514Z,16.25
2019-01-24T13:32:37.571Z,17.57
2019-01-24T13:35:05.711Z,15.13
2019-01-24T13:37:33.768Z,14.50
2019-01-24T13:40:02.113Z,14.18
2019-01-24T13:42:30.599Z,16.10
2019-01-24T13:44:58.537Z,14.60
2019-01-24T13:47:26.615Z,17.12
2019-01-24T13:49:54.684Z,25.57
2019-01-24T13:52:24.762Z,14.70
2019-01-24T13:54:52.464Z,12.58
2019-01-24T13:57:20.183Z,13.85
2019-01-24T13:59:47.889Z,18.42
2019-01-24T14:02:17.757Z,12.75
2019-01-24T14:04:49.822Z,12.23
2019-01-24T14:07:19.634Z,13.62
2019-01-24T14:09:47.426Z,11.60
2019-01-24T14:12:15.366Z,12.50
2019-01-24T14:14:43.274Z,17.95
2019-01-24T14:17:12.288Z,11.80
2019-01-24T14:19:40.205Z,11.70
2019-01-24T14:22:09.355Z,16.67
2019-01-24T14:24:37.034Z,13.50
2019-01-24T14:27:05.073Z,13.45
2019-01-24T14:29:32.903Z,10.60
2019-01-24T14:32:00.693Z,13.80
2019-01-24T14:34:28.607Z,13.45
2019-01-24T14:36:56.547Z,10.85
2019-01-24T14:39:24.429Z,11.97
2019-01-24T14:41:52.147Z,19.85
2019-01-24T14:44:21.068Z,15.60
2019-01-24T14:46:49.099Z,14.87
2019-01-24T14:49:17.911Z,11.15
2019-01-24T14:51:45.654Z,13.08
2019-01-24T14:54:13.601Z,14.80
2019-01-24T14:56:41.378Z,16.35
2019-01-24T14:59:09.077Z,19.77
2019-01-24T15:01:37.121Z,15.30
2019-01-24T15:04:05.292Z,12.10
2019-01-24T15:06:32.957Z,12.47
2019-01-24T15:09:00.624Z,14.35
2019-01-24T15:11:28.586Z,11.73
2019-01-24T15:14:00.633Z,12.50
2019-01-24T15:16:29.948Z,15.63
2019-01-24T15:18:58.170Z,16.20
2019-01-24T15:21:25.944Z,14.85
2019-01-24T15:23:53.724Z,22.15
2019-01-24T15:26:21.665Z,14.73
2019-01-24T15:28:49.469Z,13.40
2019-01-24T15:31:18.568Z,12.65
2019-01-24T15:33:46.371Z,18.70
2019-01-24T15:36:14.305Z,18.65
2019-01-24T15:38:43.362Z,28.35
2019-01-24T15:41:12.798Z,19.50
2019-01-24T15:43:41.108Z,21.50
2019-01-24T15:46:09.174Z,10.80
2019-01-24T15:48:42.439Z,11.83
2019-01-24T15:51:07.221Z,12.13
2019-01-24T15:53:35.027Z,13.28
2019-01-24T15:56:02.863Z,11.63
2019-01-24T15:58:30.945Z,11.90
2019-01-24T16:00:59.026Z,14.25
2019-01-24T16:03:26.805Z,13.75
2019-01-24T16:05:54.875Z,14.30
2019-01-24T16:08:23.947Z,14.93
2019-01-24T16:10:51.743Z,14.28
2019-01-24T16:13:20.557Z,17.98
2019-01-24T16:15:48.710Z,14.68
2019-01-24T16:18:16.643Z,15.88
2019-01-24T16:20:44.424Z,20.17
2019-01-24T16:23:12.446Z,12.73
2019-01-24T16:25:42.879Z,16.45
2019-01-24T16:28:16.920Z,14.10
2019-01-24T16:30:44.653Z,11.15
2019-01-24T16:33:13.658Z,14.43
2019-01-24T16:35:42.691Z,10.55
2019-01-24T16:38:11.446Z,17.52
2019-01-24T16:40:40.442Z,12.47
2019-01-24T16:43:08.398Z,17.55
2019-01-24T16:45:36.374Z,19.45
2019-01-24T16:48:05.217Z,13.60
2019-01-24T16:50:33.226Z,16.27
2019-01-24T16:53:00.976Z,17.00
2019-01-24T16:55:28.958Z,14.55
2019-01-24T16:57:56.744Z,18.10
2019-01-24T17:00:36.830Z,15.75
2019-01-24T17:03:05.830Z,16.85
2019-01-24T17:05:33.734Z,16.70
2019-01-24T17:08:01.824Z,19.05
2019-01-24T17:10:29.504Z,15.70
2019-01-24T17:12:57.667Z,15.70
2019-01-24T17:15:26.867Z,19.00
2019-01-24T17:17:54.992Z,21.33
2019-01-24T17:20:25.556Z,19.75
2019-01-24T17:22:53.346Z,18.27
2019-01-24T17:25:23.788Z,21.93
2019-01-24T17:27:51.871Z,20.65
2019-01-24T17:30:23.704Z,18.37
2019-01-24T17:32:52.260Z,21.15
2019-01-24T17:35:21.340Z,17.30
2019-01-24T17:37:49.132Z,17.15
2019-01-24T17:40:25.663Z,21.80
2019-01-24T17:42:53.729Z,21.73
2019-01-24T17:45:21.664Z,19.87
2019-01-24T17:47:50.700Z,18.98
2019-01-24T17:50:26.023Z,23.95
2019-01-24T17:52:54.138Z,17.15
2019-01-24T17:55:34.195Z,18.05
2019-01-24T17:58:02.189Z,15.03
2019-01-24T18:00:32.629Z,15.10
2019-01-24T18:03:00.619Z,15.70
2019-01-24T18:05:28.603Z,21.15
2019-01-24T18:07:58.616Z,17.90
2019-01-24T18:10:26.486Z,18.15
2019-01-24T18:12:57.147Z,16.25
2019-01-24T18:15:27.078Z,19.15
2019-01-24T18:17:56.438Z,21.00
2019-01-24T18:20:26.878Z,18.60
2019-01-24T18:22:58.632Z,18.62
2019-01-24T18:25:26.729Z,18.98
2019-01-24T18:27:54.679Z,19.50
2019-01-24T18:30:24.826Z,20.23
2019-01-24T18:32:58.031Z,23.12
2019-01-24T18:35:26.654Z,20.60
2019-01-24T18:37:55.564Z,19.60
2019-01-24T18:40:25.217Z,21.60
2019-01-24T18:42:53.623Z,19.98
2019-01-24T18:45:33.709Z,20.60
2019-01-24T18:48:01.479Z,19.02
2019-01-24T18:50:30.328Z,15.20
2019-01-24T18:52:58.421Z,17.82
2019-01-24T18:55:26.610Z,19.67
2019-01-24T18:57:59.670Z,17.48
2019-01-24T19:00:38.734Z,15.30
2019-01-24T19:03:08.070Z,17.20
2019-01-24T19:05:36.239Z,15.35
2019-01-24T19:08:04.981Z,18.42
2019-01-24T19:10:33.058Z,18.67
2019-01-24T19:13:03.023Z,18.67
2019-01-24T19:15:32.357Z,18.20
2019-01-24T19:18:01.784Z,19.92
2019-01-24T19:20:29.710Z,20.15
2019-01-24T19:22:59.700Z,20.62
2019-01-24T19:25:27.594Z,18.92
2019-01-24T19:27:57.394Z,20.68
2019-01-24T19:30:27.310Z,18.75
2019-01-24T19:32:56.202Z,17.70
2019-01-24T19:35:24.554Z,18.02
2019-01-24T19:37:52.588Z,17.02
2019-01-24T19:40:22.448Z,18.57
2019-01-24T19:42:50.351Z,18.70
2019-01-24T19:45:21.055Z,19.95
2019-01-24T19:47:49.395Z,20.40
2019-01-24T19:50:19.754Z,19.50
2019-01-24T19:52:47.999Z,20.05
2019-01-24T19:55:15.921Z,18.55
2019-01-24T19:57:44.815Z,20.30
2019-01-24T20:00:15.684Z,19.15
2019-01-24T20:02:45.057Z,21.00
2019-01-24T20:05:14.327Z,20.85
2019-01-24T20:07:42.708Z,18.50
2019-01-24T20:10:14.065Z,24.27
2019-01-24T20:12:43.094Z,25.23
2019-01-24T20:15:13.055Z,19.42
2019-01-24T20:17:42.015Z,16.15
2019-01-24T20:20:11.767Z,18.90
2019-01-24T20:22:40.655Z,19.45
2019-01-24T20:25:11.086Z,24.92
2019-01-24T20:27:39.839Z,20.17
2019-01-24T20:30:11.023Z,23.20
2019-01-24T20:32:39.025Z,21.00
2019-01-24T20:35:14.583Z,23.10
2019-01-24T20:37:43.915Z,19.80
2019-01-24T20:40:12.962Z,17.70
2019-01-24T20:42:41.488Z,19.65
2019-01-24T20:45:09.819Z,21.02
2019-01-24T20:47:38.038Z,20.23
2019-01-24T20:50:07.564Z,17.12
2019-01-24T20:52:36.107Z,20.08
2019-01-24T20:55:04.956Z,17.67
2019-01-24T20:57:32.971Z,19.70
2019-01-24T21:00:00.911Z,24.90
2019-01-24T21:02:28.574Z,20.12
2019-01-24T21:04:57.490Z,20.62
2019-01-24T21:07:25.925Z,23.05
2019-01-24T21:09:58.108Z,20.35
2019-01-24T21:12:25.987Z,21.68
2019-01-24T21:14:55.173Z,20.82
2019-01-24T21:17:22.949Z,25.02
2019-01-24T21:19:53.560Z,22.37
2019-01-24T21:22:22.358Z,19.73
2019-01-24T21:24:50.325Z,24.32
2019-01-24T21:29:46.004Z,27.45
2019-01-24T21:32:13.755Z,27.02
2019-01-24T21:34:42.976Z,24.45
2019-01-24T21:37:10.816Z,25.40
2019-01-24T21:39:38.694Z,25.12
2019-01-24T21:42:06.582Z,22.25
2019-01-24T21:44:34.472Z,21.30
2019-01-24T21:47:02.265Z,29.25
2019-01-24T21:49:30.116Z,24.05
2019-01-24T21:51:58.008Z,31.00
2019-01-24T21:54:25.780Z,27.37
2019-01-24T21:56:53.793Z,24.87
2019-01-24T21:59:21.512Z,24.63
2019-01-24T22:01:49.180Z,23.75
2019-01-24T22:04:18.128Z,30.20
2019-01-24T22:06:46.009Z,26.02
2019-01-24T22:09:17.929Z,21.80
2019-01-24T22:11:49.143Z,28.80
2019-01-24T22:14:16.932Z,27.90
2019-01-24T22:16:48.179Z,25.02
2019-01-24T22:19:15.910Z,23.45
2019-01-24T22:21:43.891Z,28.32
2019-01-24T22:24:11.644Z,22.07
2019-01-24T22:26:39.333Z,24.52
2019-01-24T22:29:07.371Z,26.77
2019-01-24T22:31:35.429Z,21.65
2019-01-24T22:34:03.224Z,26.90
2019-01-24T22:36:31.088Z,26.97
2019-01-24T22:38:59.011Z,27.55
2019-01-24T22:41:26.703Z,28.32
2019-01-24T22:43:55.022Z,24.65
2019-01-24T22:46:22.918Z,26.40
2019-01-24T22:48:53.361Z,23.47
2019-01-24T22:51:23.274Z,26.25
2019-01-24T22:53:52.207Z,24.15
2019-01-24T22:56:20.115Z,25.60
2019-01-24T22:58:47.915Z,22.60
2019-01-24T23:01:51.084Z,25.25
2019-01-24T23:04:21.362Z,23.45
2019-01-24T23:06:49.238Z,26.27
2019-01-24T23:09:18.841Z,23.10
2019-01-24T23:11:52.857Z,26.70
2019-01-24T23:14:20.784Z,24.27
2019-01-24T23:16:49.802Z,24.50
2019-01-24T23:19:17.601Z,28.60
2019-01-24T23:21:46.298Z,26.30
2019-01-24T23:24:15.155Z,26.55
2019-01-24T23:26:47.855Z,29.92
2019-01-24T23:29:15.625Z,35.55
2019-01-24T23:31:44.683Z,36.65
2019-01-24T23:34:12.396Z,35.65
2019-01-24T23:36:41.102Z,27.58
2019-01-24T23:39:10.294Z,26.48
2019-01-24T23:41:38.246Z,25.88
2019-01-24T23:44:05.965Z,28.60
2019-01-24T23:46:33.992Z,26.23
2019-01-24T23:49:01.899Z,25.50
2019-01-24T23:51:29.780Z,32.45
2019-01-24T23:53:59.713Z,27.48
2019-01-24T23:56:27.456Z,29.75
2019-01-24T23:58:56.178Z,25.15
